createdAt,value
2018-06-02T00:01:06.858Z,24.61
2018-06-02T00:03:34.519Z,24.63
2018-06-02T00:06:02.166Z,24.64
2018-06-02T00:08:29.757Z,24.64
2018-06-02T00:10:57.356Z,24.67
2018-06-02T00:13:24.979Z,24.67
2018-06-02T00:15:52.591Z,24.67
2018-06-02T00:18:20.280Z,24.68
2018-06-02T00:20:47.869Z,24.68
2018-06-02T00:23:21.086Z,24.72
2018-06-02T00:25:48.694Z,24.72
2018-06-02T00:28:16.291Z,24.73
2018-06-02T00:30:43.889Z,24.74
2018-06-02T00:33:11.478Z,24.74
2018-06-02T00:35:39.153Z,24.77
2018-06-02T00:38:06.779Z,24.78
2018-06-02T00:40:34.370Z,24.80
2018-06-02T00:43:01.958Z,24.80
2018-06-02T00:45:29.583Z,24.81
2018-06-02T00:47:57.209Z,24.83
2018-06-02T00:50:24.839Z,24.82
2018-06-02T00:52:52.433Z,24.88
2018-06-02T00:55:20.028Z,24.91
2018-06-02T00:57:47.621Z,24.92
2018-06-02T01:00:15.233Z,24.94
2018-06-02T01:02:42.846Z,24.95
2018-06-02T01:05:10.453Z,24.97
2018-06-02T01:07:38.073Z,24.99
2018-06-02T01:10:05.684Z,25.03
2018-06-02T01:12:33.289Z,25.04
2018-06-02T01:15:00.924Z,25.07
2018-06-02T01:17:28.510Z,25.08
2018-06-02T01:19:56.112Z,25.10
2018-06-02T01:22:23.713Z,25.12
2018-06-02T01:24:51.310Z,25.14
2018-06-02T01:27:18.899Z,25.18
2018-06-02T01:29:46.522Z,25.18
2018-06-02T01:32:14.120Z,25.21
2018-06-02T01:34:41.717Z,25.20
2018-06-02T01:37:09.307Z,25.22
2018-06-02T01:39:36.954Z,25.22
2018-06-02T01:42:04.577Z,25.22
2018-06-02T01:44:32.163Z,25.22
2018-06-02T01:46:59.841Z,25.21
2018-06-02T01:49:27.607Z,25.21
2018-06-02T01:51:55.228Z,25.21
2018-06-02T01:54:22.932Z,25.21
2018-06-02T01:56:50.632Z,25.21
2018-06-02T01:59:18.245Z,25.20
2018-06-02T02:01:45.906Z,25.22
2018-06-02T02:04:13.501Z,25.23
2018-06-02T02:06:41.144Z,25.23
2018-06-02T02:09:08.793Z,25.24
2018-06-02T02:11:38.297Z,25.23
2018-06-02T02:14:05.940Z,25.24
2018-06-02T02:16:33.534Z,25.26
2018-06-02T02:19:01.140Z,25.27
2018-06-02T02:21:28.793Z,25.28
2018-06-02T02:23:56.397Z,25.29
2018-06-02T02:26:23.984Z,25.29
2018-06-02T02:28:51.577Z,25.30
2018-06-02T02:31:19.168Z,25.31
2018-06-02T02:33:46.819Z,25.32
2018-06-02T02:36:14.410Z,25.33
2018-06-02T02:38:42.034Z,25.33
2018-06-02T02:41:09.635Z,25.32
2018-06-02T02:43:37.250Z,25.31
2018-06-02T02:46:04.842Z,25.31
2018-06-02T02:48:32.445Z,25.31
2018-06-02T02:51:00.041Z,25.32
2018-06-02T02:53:27.665Z,25.32
2018-06-02T02:55:55.312Z,25.31
2018-06-02T02:58:22.903Z,25.31
2018-06-02T03:00:50.513Z,25.31
2018-06-02T03:03:18.110Z,25.34
2018-06-02T03:05:45.701Z,25.36
2018-06-02T03:08:13.291Z,25.36
2018-06-02T03:10:40.894Z,25.37
2018-06-02T03:13:08.505Z,25.38
2018-06-02T03:15:36.127Z,25.38
2018-06-02T03:18:03.810Z,25.37
2018-06-02T03:20:31.413Z,25.36
2018-06-02T03:22:59.004Z,25.35
2018-06-02T03:25:26.601Z,25.34
2018-06-02T03:27:54.206Z,25.34
2018-06-02T03:30:21.831Z,25.33
2018-06-02T03:32:49.919Z,25.29
2018-06-02T03:35:17.524Z,25.29
2018-06-02T03:37:45.110Z,25.28
2018-06-02T03:40:12.755Z,25.27
2018-06-02T03:42:40.349Z,25.24
2018-06-02T03:45:07.971Z,25.25
2018-06-02T03:47:35.628Z,25.24
2018-06-02T03:50:03.213Z,25.23
2018-06-02T03:52:30.860Z,25.23
2018-06-02T03:54:58.479Z,25.18
2018-06-02T03:57:26.146Z,25.19
2018-06-02T03:59:53.736Z,25.17
2018-06-02T04:02:21.360Z,25.15
2018-06-02T04:04:48.967Z,25.13
2018-06-02T04:07:16.550Z,25.15
2018-06-02T04:09:44.139Z,25.13
2018-06-02T04:12:11.742Z,25.12
2018-06-02T04:14:39.347Z,25.09
2018-06-02T04:17:06.946Z,25.06
2018-06-02T04:19:34.534Z,25.09
2018-06-02T04:22:02.128Z,25.06
2018-06-02T04:24:29.747Z,25.05
2018-06-02T04:26:57.338Z,25.05
2018-06-02T04:29:24.926Z,25.02
2018-06-02T04:31:52.558Z,25.02
2018-06-02T04:34:20.146Z,25.01
2018-06-02T04:36:47.744Z,24.99
2018-06-02T04:39:15.367Z,24.98
2018-06-02T04:41:42.967Z,24.96
2018-06-02T04:44:10.564Z,24.95
2018-06-02T04:46:38.184Z,24.95
2018-06-02T04:49:05.796Z,24.96
2018-06-02T04:51:33.394Z,24.94
2018-06-02T04:54:00.985Z,24.94
2018-06-02T04:56:28.601Z,24.92
2018-06-02T04:58:56.208Z,24.91
2018-06-02T05:01:23.829Z,24.90
2018-06-02T05:03:51.436Z,24.90
2018-06-02T05:06:19.035Z,24.90
2018-06-02T05:08:46.688Z,25.08
2018-06-02T05:11:14.277Z,25.12
2018-06-02T05:13:41.898Z,25.10
2018-06-02T05:16:09.505Z,25.07
2018-06-02T05:18:37.106Z,25.05
2018-06-02T05:21:04.705Z,25.04
2018-06-02T05:23:32.299Z,25.02
2018-06-02T05:25:59.891Z,25.01
2018-06-02T05:28:27.483Z,25.01
2018-06-02T05:30:55.102Z,24.99
2018-06-02T05:33:22.722Z,24.97
2018-06-02T05:35:50.314Z,24.95
2018-06-02T05:38:17.969Z,24.93
2018-06-02T05:40:45.583Z,24.90
2018-06-02T05:43:13.180Z,24.88
2018-06-02T05:45:40.782Z,24.86
2018-06-02T05:48:08.448Z,24.85
2018-06-02T05:50:36.055Z,24.84
2018-06-02T05:53:03.655Z,24.83
2018-06-02T05:55:31.274Z,24.81
2018-06-02T05:57:58.895Z,24.79
2018-06-02T06:00:26.490Z,24.76
2018-06-02T06:02:54.083Z,24.76
2018-06-02T06:05:21.743Z,24.75
2018-06-02T06:07:49.343Z,24.72
2018-06-02T06:10:16.942Z,24.71
2018-06-02T06:12:44.668Z,24.69
2018-06-02T06:15:12.282Z,24.69
2018-06-02T06:17:39.892Z,24.67
2018-06-02T06:20:07.742Z,24.67
2018-06-02T06:22:35.420Z,24.66
2018-06-02T06:25:03.061Z,24.64
2018-06-02T06:27:30.670Z,24.64
2018-06-02T06:29:58.262Z,24.63
2018-06-02T06:32:25.856Z,24.62
2018-06-02T06:34:53.481Z,24.60
2018-06-02T06:37:21.084Z,24.60
2018-06-02T06:39:48.682Z,24.59
2018-06-02T06:42:16.314Z,24.56
2018-06-02T06:44:43.976Z,24.57
2018-06-02T06:47:11.592Z,24.56
2018-06-02T06:49:39.202Z,24.56
2018-06-02T06:52:06.858Z,24.55
2018-06-02T06:54:34.455Z,24.54
2018-06-02T06:57:02.088Z,24.54
2018-06-02T06:59:29.692Z,24.53
2018-06-02T07:01:57.293Z,24.53
2018-06-02T07:04:24.903Z,24.54
2018-06-02T07:06:52.519Z,24.55
2018-06-02T07:09:20.128Z,24.62
2018-06-02T07:11:47.932Z,25.09
2018-06-02T07:14:15.571Z,25.43
2018-06-02T07:16:43.171Z,25.61
2018-06-02T07:19:10.794Z,25.83
2018-06-02T07:21:38.493Z,26.00
2018-06-02T07:24:06.277Z,26.11
2018-06-02T07:26:33.875Z,26.22
2018-06-02T07:29:01.473Z,26.32
2018-06-02T07:31:29.079Z,26.36
2018-06-02T07:33:56.741Z,26.36
2018-06-02T07:36:24.333Z,26.30
2018-06-02T07:38:52.038Z,26.26
2018-06-02T07:41:19.700Z,26.24
2018-06-02T07:43:47.288Z,26.21
2018-06-02T07:46:14.921Z,26.21
2018-06-02T07:48:42.509Z,26.19
2018-06-02T07:51:10.115Z,26.18
2018-06-02T07:53:37.716Z,26.17
2018-06-02T07:56:05.378Z,26.17
2018-06-02T07:58:32.987Z,26.15
2018-06-02T08:01:00.607Z,26.17
2018-06-02T08:03:28.258Z,26.15
2018-06-02T08:05:55.935Z,26.16
2018-06-02T08:08:23.587Z,26.17
2018-06-02T08:10:51.243Z,26.17
2018-06-02T08:13:18.915Z,26.17
2018-06-02T08:15:46.584Z,26.18
2018-06-02T08:18:14.236Z,26.18
2018-06-02T08:20:41.951Z,26.19
2018-06-02T08:23:09.667Z,26.20
2018-06-02T08:25:37.508Z,26.20
2018-06-02T08:28:05.133Z,26.22
2018-06-02T08:30:32.765Z,26.23
2018-06-02T08:33:00.413Z,26.25
2018-06-02T08:35:28.298Z,26.27
2018-06-02T08:37:55.960Z,26.28
2018-06-02T08:40:23.833Z,26.30
2018-06-02T08:42:51.497Z,26.31
2018-06-02T08:45:19.180Z,26.32
2018-06-02T08:47:46.907Z,26.34
2018-06-02T08:50:14.586Z,26.36
2018-06-02T08:52:42.258Z,26.39
2018-06-02T08:55:09.907Z,26.41
2018-06-02T08:57:37.508Z,26.42
2018-06-02T09:00:05.232Z,26.43
2018-06-02T09:02:32.838Z,26.45
2018-06-02T09:05:00.544Z,26.48
2018-06-02T09:07:28.146Z,26.51
2018-06-02T09:09:55.876Z,26.53
2018-06-02T09:12:23.495Z,26.55
2018-06-02T09:14:51.105Z,26.57
2018-06-02T09:17:18.727Z,26.58
2018-06-02T09:19:46.443Z,26.61
2018-06-02T09:22:14.096Z,26.61
2018-06-02T09:24:41.756Z,26.63
2018-06-02T09:27:09.438Z,26.67
2018-06-02T09:29:37.068Z,26.68
2018-06-02T09:32:04.752Z,26.69
2018-06-02T09:34:32.508Z,26.72
2018-06-02T09:37:00.123Z,26.73
2018-06-02T09:39:27.843Z,26.75
2018-06-02T09:41:55.547Z,26.78
2018-06-02T09:44:23.147Z,26.81
2018-06-02T09:46:50.741Z,26.82
2018-06-02T09:49:18.340Z,26.86
2018-06-02T09:51:46.154Z,26.89
2018-06-02T09:54:13.781Z,26.90
2018-06-02T09:56:41.481Z,26.93
2018-06-02T09:59:09.109Z,26.98
2018-06-02T10:01:36.804Z,26.99
2018-06-02T10:04:04.412Z,27.00
2018-06-02T10:06:32.084Z,27.03
2018-06-02T10:08:59.739Z,27.04
2018-06-02T10:11:27.450Z,27.09
2018-06-02T10:13:55.221Z,27.11
2018-06-02T10:16:22.886Z,27.14
2018-06-02T10:18:50.491Z,27.15
2018-06-02T10:21:18.208Z,27.17
2018-06-02T10:23:45.803Z,27.20
2018-06-02T10:26:13.434Z,27.22
2018-06-02T10:28:41.146Z,27.24
2018-06-02T10:31:08.759Z,27.25
2018-06-02T10:33:36.363Z,27.29
2018-06-02T10:36:04.075Z,27.31
2018-06-02T10:38:31.784Z,27.35
2018-06-02T10:40:59.415Z,27.36
2018-06-02T10:43:27.030Z,27.39
2018-06-02T10:45:54.621Z,27.42
2018-06-02T10:48:22.215Z,27.42
2018-06-02T10:50:49.959Z,27.45
2018-06-02T10:53:17.622Z,27.47
2018-06-02T10:55:45.212Z,27.50
2018-06-02T10:58:12.818Z,27.52
2018-06-02T11:00:40.507Z,27.53
2018-06-02T11:03:08.281Z,27.54
2018-06-02T11:05:35.995Z,27.58
2018-06-02T11:08:03.703Z,27.60
2018-06-02T11:10:31.470Z,27.62
2018-06-02T11:12:59.182Z,27.63
2018-06-02T11:15:26.999Z,27.66
2018-06-02T11:17:54.640Z,27.71
2018-06-02T11:20:22.319Z,27.72
2018-06-02T11:22:49.994Z,27.74
2018-06-02T11:25:17.642Z,27.76
2018-06-02T11:27:45.307Z,27.80
2018-06-02T11:30:12.974Z,27.80
2018-06-02T11:32:40.641Z,27.84
2018-06-02T11:35:08.293Z,27.87
2018-06-02T11:37:35.961Z,27.89
2018-06-02T11:40:03.586Z,27.92
2018-06-02T11:42:31.296Z,27.92
2018-06-02T11:44:58.931Z,27.92
2018-06-02T11:47:26.604Z,27.93
2018-06-02T11:49:54.380Z,27.94
2018-06-02T11:52:22.156Z,27.96
2018-06-02T11:54:49.799Z,27.97
2018-06-02T11:57:17.528Z,27.99
2018-06-02T11:59:45.267Z,28.02
2018-06-02T12:02:13.075Z,28.02
2018-06-02T12:04:40.675Z,28.05
2018-06-02T12:07:08.417Z,28.07
2018-06-02T12:09:36.028Z,28.08
2018-06-02T12:12:03.654Z,28.08
2018-06-02T12:14:31.255Z,28.10
2018-06-02T12:16:59.084Z,28.10
2018-06-02T12:19:26.691Z,28.13
2018-06-02T12:21:54.424Z,28.12
2018-06-02T12:24:22.042Z,28.13
2018-06-02T12:26:49.735Z,28.14
2018-06-02T12:29:17.395Z,28.16
2018-06-02T12:31:45.047Z,28.17
2018-06-02T12:34:12.709Z,28.17
2018-06-02T12:36:40.523Z,28.18
2018-06-02T12:39:08.249Z,28.19
2018-06-02T12:41:35.966Z,28.19
2018-06-02T12:44:03.664Z,28.21
2018-06-02T12:46:31.447Z,28.25
2018-06-02T12:48:59.075Z,28.21
2018-06-02T12:51:26.765Z,28.22
2018-06-02T12:53:54.479Z,28.24
2018-06-02T12:56:22.252Z,28.25
2018-06-02T12:58:49.953Z,28.25
2018-06-02T13:01:17.547Z,28.25
2018-06-02T13:03:45.138Z,28.25
2018-06-02T13:06:12.854Z,28.25
2018-06-02T13:08:40.624Z,28.27
2018-06-02T13:11:08.381Z,28.28
2018-06-02T13:13:35.984Z,28.28
2018-06-02T13:16:03.968Z,28.29
2018-06-02T13:18:31.883Z,28.29
2018-06-02T13:20:59.544Z,28.31
2018-06-02T13:23:27.144Z,28.32
2018-06-02T13:25:54.958Z,28.33
2018-06-02T13:28:22.734Z,28.34
2018-06-02T13:30:50.387Z,28.36
2018-06-02T13:33:18.149Z,28.36
2018-06-02T13:35:45.931Z,28.37
2018-06-02T13:38:13.594Z,28.36
2018-06-02T13:40:41.260Z,28.37
2018-06-02T13:43:09.066Z,28.39
2018-06-02T13:45:36.665Z,28.41
2018-06-02T13:48:04.267Z,28.41
2018-06-02T13:50:31.856Z,28.41
2018-06-02T13:52:59.564Z,28.42
2018-06-02T13:55:27.235Z,28.43
2018-06-02T13:57:54.838Z,28.44
2018-06-02T14:00:22.555Z,28.46
2018-06-02T14:02:50.201Z,28.45
2018-06-02T14:05:17.846Z,28.46
2018-06-02T14:07:45.454Z,28.48
2018-06-02T14:10:13.099Z,28.49
2018-06-02T14:12:40.822Z,28.50
2018-06-02T14:15:08.435Z,28.51
2018-06-02T14:17:36.132Z,28.51
2018-06-02T14:20:03.860Z,28.51
2018-06-02T14:22:31.457Z,28.52
2018-06-02T14:24:59.087Z,28.52
2018-06-02T14:27:26.859Z,28.55
2018-06-02T14:29:54.482Z,28.54
2018-06-02T14:32:22.212Z,28.54
2018-06-02T14:34:49.810Z,28.55
2018-06-02T14:37:17.419Z,28.55
2018-06-02T14:39:45.060Z,28.55
2018-06-02T14:42:12.664Z,28.55
2018-06-02T14:44:40.294Z,28.55
2018-06-02T14:47:07.937Z,28.56
2018-06-02T14:49:35.616Z,28.56
2018-06-02T14:52:03.268Z,28.57
2018-06-02T14:54:30.938Z,28.58
2018-06-02T14:56:58.530Z,28.58
2018-06-02T14:59:26.250Z,28.59
2018-06-02T15:01:53.927Z,28.59
2018-06-02T15:04:21.577Z,28.57
2018-06-02T15:06:49.255Z,28.58
2018-06-02T15:09:16.915Z,28.59
2018-06-02T15:11:44.577Z,28.59
2018-06-02T15:14:12.173Z,28.59
2018-06-02T15:16:39.804Z,28.59
2018-06-02T15:19:07.511Z,28.59
2018-06-02T15:21:35.119Z,28.60
2018-06-02T15:24:02.738Z,28.60
2018-06-02T15:26:30.341Z,28.60
2018-06-02T15:28:57.947Z,28.60
2018-06-02T15:31:25.714Z,28.60
2018-06-02T15:33:53.463Z,28.60
2018-06-02T15:36:21.106Z,28.60
2018-06-02T15:38:48.770Z,28.59
2018-06-02T15:41:16.538Z,28.59
2018-06-02T15:43:44.243Z,28.59
2018-06-02T15:46:12.062Z,28.59
2018-06-02T15:48:39.732Z,28.59
2018-06-02T15:51:07.351Z,28.59
2018-06-02T15:53:35.042Z,28.60
2018-06-02T15:56:02.747Z,28.59
2018-06-02T15:58:30.484Z,28.60
2018-06-02T16:00:58.235Z,28.60
2018-06-02T16:03:25.905Z,28.60
2018-06-02T16:05:53.585Z,28.60
2018-06-02T16:08:21.321Z,28.60
2018-06-02T16:10:48.939Z,28.60
2018-06-02T16:13:16.769Z,28.59
2018-06-02T16:15:44.543Z,28.59
2018-06-02T16:18:12.202Z,28.59
2018-06-02T16:20:39.800Z,28.59
2018-06-02T16:23:07.420Z,28.59
2018-06-02T16:25:35.087Z,28.58
2018-06-02T16:28:02.715Z,28.58
2018-06-02T16:30:30.515Z,28.58
2018-06-02T16:32:58.233Z,28.57
2018-06-02T16:35:25.977Z,28.56
2018-06-02T16:37:53.650Z,28.56
2018-06-02T16:40:21.264Z,28.54
2018-06-02T16:42:48.872Z,28.54
2018-06-02T16:45:16.591Z,28.54
2018-06-02T16:47:44.249Z,28.53
2018-06-02T16:50:11.850Z,28.52
2018-06-02T16:52:39.478Z,28.52
2018-06-02T16:55:07.145Z,28.50
2018-06-02T16:57:34.903Z,28.48
2018-06-02T17:00:02.551Z,28.46
2018-06-02T17:02:30.333Z,28.45
2018-06-02T17:04:57.946Z,28.43
2018-06-02T17:07:25.557Z,28.42
2018-06-02T17:09:53.322Z,28.41
2018-06-02T17:12:20.983Z,28.39
2018-06-02T17:14:48.632Z,28.38
2018-06-02T17:17:16.307Z,28.36
2018-06-02T17:19:43.980Z,28.35
2018-06-02T17:22:11.631Z,28.34
2018-06-02T17:24:39.295Z,28.32
2018-06-02T17:27:06.951Z,28.32
2018-06-02T17:29:34.620Z,28.30
2018-06-02T17:32:02.284Z,28.28
2018-06-02T17:34:30.037Z,28.27
2018-06-02T17:36:57.716Z,28.25
2018-06-02T17:39:25.320Z,28.22
2018-06-02T17:41:53.024Z,28.22
2018-06-02T17:44:20.703Z,28.21
2018-06-02T17:46:48.358Z,28.19
2018-06-02T17:49:16.026Z,28.19
2018-06-02T17:51:43.628Z,28.16
2018-06-02T17:54:11.355Z,28.16
2018-06-02T17:56:39.118Z,28.15
2018-06-02T17:59:06.727Z,28.13
2018-06-02T18:01:34.319Z,28.12
2018-06-02T18:04:01.993Z,28.10
2018-06-02T18:06:29.770Z,28.08
2018-06-02T18:08:57.384Z,28.06
2018-06-02T18:11:25.197Z,28.03
2018-06-02T18:13:52.859Z,28.01
2018-06-02T18:16:20.456Z,28.00
2018-06-02T18:18:48.174Z,27.99
2018-06-02T18:21:15.816Z,27.96
2018-06-02T18:23:43.507Z,27.94
2018-06-02T18:26:11.180Z,27.92
2018-06-02T18:28:38.821Z,27.90
2018-06-02T18:31:06.501Z,27.89
2018-06-02T18:33:34.154Z,27.87
2018-06-02T18:36:01.930Z,27.86
2018-06-02T18:38:29.547Z,27.84
2018-06-02T18:40:57.260Z,27.82
2018-06-02T18:43:24.896Z,27.79
2018-06-02T18:45:52.502Z,27.79
2018-06-02T18:48:20.191Z,27.77
2018-06-02T18:50:48.023Z,27.76
2018-06-02T18:53:15.731Z,27.74
2018-06-02T18:55:43.440Z,27.72
2018-06-02T18:58:11.167Z,27.70
2018-06-02T19:00:38.768Z,27.69
2018-06-02T19:03:06.426Z,27.69
2018-06-02T19:05:34.197Z,27.67
2018-06-02T19:08:01.803Z,27.66
2018-06-02T19:10:29.612Z,27.63
2018-06-02T19:12:57.282Z,27.63
2018-06-02T19:15:25.157Z,27.61
2018-06-02T19:17:52.887Z,27.61
2018-06-02T19:20:20.578Z,27.60
2018-06-02T19:22:48.236Z,27.58
2018-06-02T19:25:15.865Z,27.57
2018-06-02T19:27:43.561Z,27.57
2018-06-02T19:30:11.231Z,27.55
2018-06-02T19:32:38.880Z,27.56
2018-06-02T19:35:06.563Z,27.55
2018-06-02T19:38:28.563Z,27.77
2018-06-02T19:40:57.389Z,28.24
2018-06-02T19:43:26.665Z,27.45
2018-06-02T19:45:55.791Z,27.99
2018-06-02T19:48:24.911Z,27.43
2018-06-02T19:50:54.185Z,27.61
2018-06-02T19:53:23.194Z,27.54
2018-06-02T19:55:52.356Z,27.52
2018-06-02T19:58:21.241Z,27.49
2018-06-02T20:00:50.532Z,27.53
2018-06-02T20:03:19.559Z,27.63
2018-06-02T20:05:48.759Z,27.64
2018-06-02T20:08:18.020Z,27.88
2018-06-02T20:10:47.171Z,27.46
2018-06-02T20:13:16.379Z,27.92
2018-06-02T20:15:45.327Z,27.89
2018-06-02T20:18:14.497Z,27.20
2018-06-02T20:20:43.370Z,27.64
2018-06-02T20:23:12.408Z,27.50
2018-06-02T20:25:41.654Z,27.52
2018-06-02T20:28:10.805Z,27.48
2018-06-02T20:30:40.409Z,27.22
2018-06-02T20:33:10.239Z,28.08
2018-06-02T20:35:39.250Z,28.15
2018-06-02T20:38:08.012Z,28.19
2018-06-02T20:40:37.173Z,28.14
2018-06-02T20:43:06.424Z,27.85
2018-06-02T20:45:35.771Z,28.09
2018-06-02T20:48:05.005Z,28.06
2018-06-02T20:50:34.139Z,27.61
2018-06-02T20:53:03.235Z,27.98
2018-06-02T20:55:32.365Z,28.00
2018-06-02T20:58:01.569Z,27.20
2018-06-02T21:00:30.703Z,27.90
2018-06-02T21:02:59.907Z,27.70
2018-06-02T21:05:29.534Z,27.57
2018-06-02T21:07:58.737Z,27.69
2018-06-02T21:10:27.626Z,27.46
2018-06-02T21:12:56.422Z,28.00
2018-06-02T21:15:26.030Z,27.65
2018-06-02T21:17:55.053Z,27.16
2018-06-02T21:20:24.190Z,27.20
2018-06-02T21:22:53.335Z,27.92
2018-06-02T21:25:22.435Z,27.18
2018-06-02T21:27:51.588Z,27.94
2018-06-02T21:30:20.698Z,27.89
2018-06-02T21:32:49.809Z,27.76
2018-06-02T21:35:18.693Z,27.41
2018-06-02T21:37:47.815Z,28.01
2018-06-02T21:40:16.885Z,27.92
2018-06-02T21:42:45.913Z,27.05
2018-06-02T21:45:15.057Z,27.96
2018-06-02T21:47:44.214Z,28.02
2018-06-02T21:50:13.228Z,27.86
2018-06-02T21:52:48.814Z,27.03
2018-06-02T21:55:18.130Z,27.62
2018-06-02T21:57:47.406Z,27.91
2018-06-02T22:00:16.480Z,27.01
2018-06-02T22:02:45.575Z,27.69
2018-06-02T22:05:14.714Z,27.61
2018-06-02T22:07:44.611Z,27.90
2018-06-02T22:10:13.744Z,27.77
2018-06-02T22:12:42.876Z,27.91
2018-06-02T22:15:12.620Z,27.44
2018-06-02T22:17:41.551Z,27.98
2018-06-02T22:20:10.625Z,27.90
2018-06-02T22:22:39.723Z,27.64
2018-06-02T22:25:08.685Z,27.30
2018-06-02T22:27:37.889Z,27.50
2018-06-02T22:30:06.906Z,27.32
2018-06-02T22:32:36.344Z,27.56
2018-06-02T22:35:06.010Z,27.65
2018-06-02T22:37:34.853Z,27.58
2018-06-02T22:40:04.175Z,27.77
2018-06-02T22:42:33.457Z,27.24
2018-06-02T22:45:02.677Z,27.78
2018-06-02T22:47:31.762Z,27.27
2018-06-02T22:50:00.885Z,26.94
2018-06-02T22:52:29.884Z,27.69
2018-06-02T22:54:58.903Z,27.91
2018-06-02T22:57:28.266Z,27.59
2018-06-02T22:59:57.643Z,27.22
2018-06-02T23:02:26.719Z,27.83
2018-06-02T23:04:56.093Z,27.22
2018-06-02T23:07:25.189Z,27.15
2018-06-02T23:09:54.441Z,27.21
2018-06-02T23:12:23.597Z,28.04
2018-06-02T23:14:52.546Z,28.09
2018-06-02T23:17:21.361Z,27.77
2018-06-02T23:19:50.159Z,27.61
2018-06-02T23:22:35.383Z,27.24
2018-06-02T23:25:04.264Z,27.66
2018-06-02T23:27:33.223Z,27.83
2018-06-02T23:30:02.214Z,27.60
2018-06-02T23:32:31.118Z,27.58
2018-06-02T23:34:59.872Z,28.05
2018-06-02T23:37:28.849Z,28.12
2018-06-02T23:39:57.704Z,28.35
2018-06-02T23:42:26.627Z,28.67
2018-06-02T23:44:55.335Z,28.34
2018-06-02T23:47:24.055Z,28.28
2018-06-02T23:49:52.762Z,28.13
2018-06-02T23:52:21.731Z,28.01
2018-06-02T23:54:50.620Z,28.99
2018-06-02T23:57:19.419Z,28.56
2018-06-02T23:59:49.132Z,28.67
